Terminal Aerodrome Forecast
Issued by NWS

Home | Current Version | Previous Version | Text Only | Print | Product List | Glossary On
Versions: 1 2 3 4 5 6 7 8 9 10 11 12 13 14 15 16 17 18 19
000
FTUS46 KPQR 021921 AAA
TAFONP
TAF AMD
KONP 021921Z 0219/0318 12004KT P6SM -SHRA SCT015 BKN020 OVC040
     FM022000 18008G18KT 4SM -RA BR BKN015 OVC025
     FM030200 22010KT 4SM -SHRA BR BKN025 OVC040
     FM030600 24005KT P6SM -SHRA SCT025 OVC050=

USA.gov is the U.S. government's official web portal to all federal, state and local government web resources and services.